createdAt,value
2017-08-14T00:00:14.036Z,5.78
2017-08-14T00:02:40.715Z,7.70
2017-08-14T00:05:07.484Z,7.78
2017-08-14T00:07:34.157Z,5.95
2017-08-14T00:10:00.812Z,13.00
2017-08-14T00:12:27.477Z,3.87
2017-08-14T00:14:54.142Z,5.90
2017-08-14T00:17:20.784Z,4.55
2017-08-14T00:19:47.452Z,5.68
2017-08-14T00:22:14.099Z,6.07
2017-08-14T00:24:40.744Z,5.95
2017-08-14T00:27:07.423Z,8.05
2017-08-14T00:29:34.165Z,6.05
2017-08-14T00:32:00.923Z,5.68
2017-08-14T00:34:27.596Z,5.80
2017-08-14T00:36:54.289Z,8.50
2017-08-14T00:39:20.934Z,5.95
2017-08-14T00:41:47.670Z,8.00
2017-08-14T00:44:14.309Z,7.60
2017-08-14T00:46:40.967Z,7.05
2017-08-14T00:49:07.706Z,5.85
2017-08-14T00:51:34.371Z,5.12
2017-08-14T00:54:01.087Z,5.37
2017-08-14T00:56:27.772Z,5.90
2017-08-14T00:58:54.454Z,5.30
2017-08-14T01:01:21.096Z,4.45
2017-08-14T01:03:47.839Z,5.20
2017-08-14T01:06:14.568Z,5.87
2017-08-14T01:08:41.223Z,7.72
2017-08-14T01:11:07.967Z,5.12
2017-08-14T01:13:34.693Z,5.03
2017-08-14T01:16:01.338Z,5.43
2017-08-14T01:18:28.447Z,5.82
2017-08-14T01:20:55.087Z,7.57
2017-08-14T01:23:21.733Z,6.20
2017-08-14T01:25:48.499Z,7.75
2017-08-14T01:28:15.155Z,6.07
2017-08-14T01:30:41.820Z,5.30
2017-08-14T01:33:08.502Z,6.57
2017-08-14T01:35:35.168Z,10.45
2017-08-14T01:38:01.833Z,5.65
2017-08-14T01:40:28.506Z,6.10
2017-08-14T01:42:55.171Z,6.47
2017-08-14T01:45:21.841Z,12.07
2017-08-14T01:47:48.526Z,8.25
2017-08-14T01:50:15.219Z,14.30
2017-08-14T01:52:41.936Z,7.90
2017-08-14T01:55:08.618Z,7.07
2017-08-14T01:57:35.260Z,7.93
2017-08-14T02:00:01.970Z,7.90
2017-08-14T02:02:28.668Z,7.12
2017-08-14T02:04:55.308Z,8.80
2017-08-14T02:07:21.999Z,7.32
2017-08-14T02:09:48.668Z,7.55
2017-08-14T02:12:15.364Z,10.05
2017-08-14T02:14:42.019Z,7.18
2017-08-14T02:17:08.712Z,7.85
2017-08-14T02:19:35.367Z,8.88
2017-08-14T02:22:02.032Z,7.10
2017-08-14T02:24:28.720Z,7.57
2017-08-14T02:26:55.368Z,7.53
2017-08-14T02:29:22.008Z,7.95
2017-08-14T02:31:49.621Z,8.15
2017-08-14T02:34:16.336Z,8.77
2017-08-14T02:36:42.980Z,7.35
2017-08-14T02:39:09.697Z,8.30
2017-08-14T02:41:36.374Z,8.52
2017-08-14T02:44:03.100Z,8.35
2017-08-14T02:46:29.840Z,8.82
2017-08-14T02:48:56.487Z,7.40
2017-08-14T02:51:23.224Z,12.00
2017-08-14T02:53:49.897Z,7.75
2017-08-14T02:56:16.554Z,8.20
2017-08-14T02:58:43.259Z,7.90
2017-08-14T03:01:09.936Z,8.30
2017-08-14T03:03:36.625Z,10.80
2017-08-14T03:06:03.365Z,8.65
2017-08-14T03:08:30.031Z,7.97
2017-08-14T03:10:56.672Z,8.38
2017-08-14T03:13:23.758Z,8.32
2017-08-14T03:15:50.447Z,8.07
2017-08-14T03:18:17.088Z,7.35
2017-08-14T03:20:43.833Z,7.68
2017-08-14T03:23:10.564Z,8.35
2017-08-14T03:25:37.219Z,9.10
2017-08-14T03:28:03.864Z,7.90
2017-08-14T03:30:30.545Z,10.75
2017-08-14T03:32:57.231Z,8.68
2017-08-14T03:35:23.899Z,7.53
2017-08-14T03:37:50.602Z,8.90
2017-08-14T03:40:17.355Z,7.50
2017-08-14T03:42:44.014Z,7.18
2017-08-14T03:45:10.680Z,7.47
2017-08-14T03:47:37.315Z,8.02
2017-08-14T03:50:03.972Z,7.60
2017-08-14T03:52:30.666Z,7.62
2017-08-14T03:54:57.396Z,12.15
2017-08-14T03:57:24.138Z,7.60
2017-08-14T03:59:50.822Z,8.52
2017-08-14T04:02:17.476Z,6.65
2017-08-14T04:04:44.132Z,7.85
2017-08-14T04:07:10.890Z,6.95
2017-08-14T04:09:37.625Z,7.12
2017-08-14T04:12:04.686Z,7.18
2017-08-14T04:14:31.375Z,7.55
2017-08-14T04:16:58.263Z,8.65
2017-08-14T04:19:25.517Z,7.30
2017-08-14T04:21:52.695Z,8.02
2017-08-14T04:24:19.613Z,9.23
2017-08-14T04:26:48.916Z,8.02
2017-08-14T04:29:15.763Z,8.65
2017-08-14T04:31:42.705Z,7.00
2017-08-14T04:34:09.654Z,7.97
2017-08-14T04:36:36.804Z,8.02
2017-08-14T04:39:04.568Z,7.80
2017-08-14T04:41:31.255Z,7.57
2017-08-14T04:43:57.958Z,9.43
2017-08-14T04:46:24.686Z,9.18
2017-08-14T04:48:51.338Z,8.93
2017-08-14T04:51:18.282Z,9.55
2017-08-14T04:53:45.158Z,8.68
2017-08-14T04:56:11.971Z,7.47
2017-08-14T04:58:38.696Z,8.50
2017-08-14T05:01:05.450Z,7.87
2017-08-14T05:03:32.110Z,8.38
2017-08-14T05:05:58.835Z,10.32
2017-08-14T05:08:25.490Z,8.85
2017-08-14T05:10:52.200Z,14.40
2017-08-14T05:13:18.888Z,7.78
2017-08-14T05:15:45.533Z,8.68
2017-08-14T05:18:12.176Z,7.87
2017-08-14T05:20:38.965Z,9.38
2017-08-14T05:23:05.608Z,10.85
2017-08-14T05:25:32.261Z,9.73
2017-08-14T05:27:58.938Z,7.22
2017-08-14T05:30:25.571Z,7.90
2017-08-14T05:32:52.255Z,9.05
2017-08-14T05:35:19.014Z,6.72
2017-08-14T05:37:45.660Z,7.62
2017-08-14T05:40:12.391Z,7.22
2017-08-14T05:42:39.075Z,7.18
2017-08-14T05:45:05.725Z,6.53
2017-08-14T05:47:32.398Z,8.10
2017-08-14T05:49:59.158Z,13.48
2017-08-14T05:52:25.819Z,9.60
2017-08-14T05:54:52.484Z,7.93
2017-08-14T05:57:19.260Z,7.45
2017-08-14T05:59:46.000Z,6.40
2017-08-14T06:02:12.645Z,5.75
2017-08-14T06:04:39.308Z,5.30
2017-08-14T06:07:05.952Z,7.07
2017-08-14T06:09:32.630Z,6.12
2017-08-14T06:11:59.333Z,6.87
2017-08-14T06:14:25.976Z,7.90
2017-08-14T06:16:52.616Z,6.30
2017-08-14T06:19:19.280Z,10.20
2017-08-14T06:21:45.943Z,11.05
2017-08-14T06:24:12.718Z,6.28
2017-08-14T06:26:39.379Z,5.40
2017-08-14T06:29:06.099Z,6.78
2017-08-14T06:31:32.740Z,8.68
2017-08-14T06:33:59.479Z,7.75
2017-08-14T06:36:26.139Z,5.60
2017-08-14T06:38:52.802Z,6.72
2017-08-14T06:41:19.491Z,5.28
2017-08-14T06:43:46.142Z,5.45
2017-08-14T06:46:12.780Z,6.22
2017-08-14T06:48:39.518Z,5.25
2017-08-14T06:51:06.245Z,5.87
2017-08-14T06:53:32.984Z,4.43
2017-08-14T06:55:59.742Z,4.37
2017-08-14T06:58:26.482Z,3.95
2017-08-14T07:00:53.218Z,4.68
2017-08-14T07:03:19.953Z,8.00
2017-08-14T07:05:46.607Z,5.93
2017-08-14T07:08:13.262Z,4.40
2017-08-14T07:10:39.977Z,4.25
2017-08-14T07:13:06.620Z,4.35
2017-08-14T07:15:33.284Z,4.22
2017-08-14T07:18:00.007Z,4.20
2017-08-14T07:20:26.737Z,3.75
2017-08-14T07:22:53.478Z,4.10
2017-08-14T07:25:20.213Z,4.25
2017-08-14T07:27:46.963Z,4.32
2017-08-14T07:30:13.704Z,5.25
2017-08-14T07:32:40.790Z,3.97
2017-08-14T07:35:07.428Z,3.65
2017-08-14T07:37:34.095Z,3.50
2017-08-14T07:40:00.882Z,3.30
2017-08-14T07:42:27.634Z,3.00
2017-08-14T07:44:54.285Z,3.75
2017-08-14T07:47:21.009Z,4.07
2017-08-14T07:49:47.664Z,3.00
2017-08-14T07:52:14.407Z,12.45
2017-08-14T07:54:41.075Z,5.75
2017-08-14T07:57:07.720Z,5.70
2017-08-14T07:59:34.357Z,7.28
2017-08-14T08:02:01.132Z,4.97
2017-08-14T08:04:27.791Z,8.88
2017-08-14T08:06:54.461Z,3.47
2017-08-14T08:09:21.140Z,13.15
2017-08-14T08:11:47.803Z,15.43
2017-08-14T08:14:14.467Z,17.25
2017-08-14T08:16:41.128Z,5.70
2017-08-14T08:19:07.783Z,2.62
2017-08-14T08:21:34.471Z,5.10
2017-08-14T08:24:01.193Z,4.53
2017-08-14T08:26:27.837Z,2.42
2017-08-14T08:28:54.580Z,3.22
2017-08-14T08:31:21.250Z,3.92
2017-08-14T08:33:47.955Z,2.70
2017-08-14T08:36:14.615Z,7.70
2017-08-14T08:38:41.352Z,6.50
2017-08-14T08:41:08.004Z,3.10
2017-08-14T08:43:34.666Z,6.65
2017-08-14T08:46:01.337Z,3.00
2017-08-14T08:48:27.990Z,4.25
2017-08-14T08:50:54.627Z,2.62
2017-08-14T08:53:21.311Z,5.18
2017-08-14T08:55:48.026Z,4.57
2017-08-14T08:58:14.747Z,8.30
2017-08-14T09:00:41.408Z,6.68
2017-08-14T09:03:08.065Z,3.83
2017-08-14T09:05:34.773Z,5.20
2017-08-14T09:08:01.463Z,2.65
2017-08-14T09:10:28.159Z,8.18
2017-08-14T09:12:54.896Z,6.03
2017-08-14T09:15:21.587Z,6.40
2017-08-14T09:17:48.247Z,6.43
2017-08-14T09:20:14.912Z,3.35
2017-08-14T09:22:41.670Z,3.42
2017-08-14T09:25:08.331Z,3.35
2017-08-14T09:27:35.042Z,4.93
2017-08-14T09:30:01.794Z,3.03
2017-08-14T09:32:28.458Z,2.40
2017-08-14T09:34:55.166Z,3.85
2017-08-14T09:37:21.910Z,4.25
2017-08-14T09:39:48.573Z,3.47
2017-08-14T09:42:15.299Z,3.78
2017-08-14T09:44:41.982Z,4.62
2017-08-14T09:47:08.663Z,4.75
2017-08-14T09:49:35.406Z,4.75
2017-08-14T09:52:02.151Z,4.40
2017-08-14T09:54:28.898Z,2.28
2017-08-14T09:56:55.736Z,3.60
2017-08-14T09:59:22.473Z,2.60
2017-08-14T10:01:49.134Z,4.57
2017-08-14T10:04:15.794Z,4.00
2017-08-14T10:06:42.471Z,15.30
2017-08-14T10:09:09.116Z,4.28
2017-08-14T10:11:35.886Z,3.97
2017-08-14T10:14:02.615Z,4.03
2017-08-14T10:16:29.367Z,2.53
2017-08-14T10:18:56.110Z,2.83
2017-08-14T10:21:22.831Z,2.10
2017-08-14T10:23:49.472Z,3.42
2017-08-14T10:26:16.136Z,2.45
2017-08-14T10:28:42.857Z,2.65
2017-08-14T10:31:09.515Z,2.30
2017-08-14T10:33:36.165Z,2.50
2017-08-14T10:36:02.878Z,1.98
2017-08-14T10:38:29.540Z,3.15
2017-08-14T10:40:56.280Z,2.60
2017-08-14T10:43:23.110Z,2.58
2017-08-14T10:45:49.756Z,3.00
2017-08-14T10:48:16.395Z,1.60
2017-08-14T10:50:43.134Z,1.40
2017-08-14T10:53:09.866Z,2.33
2017-08-14T10:55:36.541Z,10.48
2017-08-14T10:58:03.228Z,2.37
2017-08-14T11:00:29.981Z,2.30
2017-08-14T11:02:56.726Z,2.80
2017-08-14T11:05:23.428Z,2.30
2017-08-14T11:07:50.214Z,2.00
2017-08-14T11:10:16.875Z,2.20
2017-08-14T11:12:43.547Z,2.25
2017-08-14T11:15:10.192Z,1.50
2017-08-14T11:17:36.836Z,1.52
2017-08-14T11:20:03.500Z,1.83
2017-08-14T11:22:30.163Z,2.30
2017-08-14T11:24:56.898Z,2.65
2017-08-14T11:27:23.586Z,1.50
2017-08-14T11:29:50.232Z,1.70
2017-08-14T11:32:16.877Z,1.55
2017-08-14T11:34:43.559Z,2.10
2017-08-14T11:37:10.304Z,2.47
2017-08-14T11:39:37.043Z,2.10
2017-08-14T11:42:03.779Z,2.42
2017-08-14T11:44:30.527Z,1.65
2017-08-14T11:46:57.181Z,2.00
2017-08-14T11:49:23.907Z,2.10
2017-08-14T11:51:50.642Z,1.55
2017-08-14T11:54:17.384Z,3.22
2017-08-14T11:56:44.083Z,1.60
2017-08-14T11:59:10.763Z,1.90
2017-08-14T12:01:37.398Z,1.70
2017-08-14T12:04:04.132Z,1.90
2017-08-14T12:06:30.768Z,1.47
2017-08-14T12:08:57.408Z,1.90
2017-08-14T12:11:24.087Z,1.30
2017-08-14T12:13:50.803Z,2.10
2017-08-14T12:16:17.452Z,1.43
2017-08-14T12:18:44.179Z,1.27
2017-08-14T12:21:10.820Z,1.47
2017-08-14T12:23:37.571Z,1.63
2017-08-14T12:26:04.291Z,1.50
2017-08-14T12:28:30.952Z,4.60
2017-08-14T12:30:57.611Z,1.20
2017-08-14T12:33:24.276Z,1.73
2017-08-14T12:35:50.956Z,1.17
2017-08-14T12:38:17.604Z,27.70
2017-08-14T12:40:44.282Z,47.37
2017-08-14T12:43:10.932Z,10.60
2017-08-14T12:45:37.580Z,17.97
2017-08-14T12:48:04.362Z,2.10
2017-08-14T12:50:31.004Z,3.83
2017-08-14T12:52:57.652Z,17.57
2017-08-14T12:55:24.386Z,5.63
2017-08-14T12:57:51.033Z,6.87
2017-08-14T13:00:17.759Z,15.00
2017-08-14T13:02:44.428Z,12.27
2017-08-14T13:05:11.138Z,6.00
2017-08-14T13:07:37.792Z,1.80
2017-08-14T13:10:04.522Z,85.20
2017-08-14T13:12:31.186Z,27.00
2017-08-14T13:14:57.837Z,21.27
2017-08-14T13:17:26.542Z,32.10
2017-08-14T13:19:54.714Z,14.77
2017-08-14T13:22:22.481Z,1.60
2017-08-14T13:24:51.479Z,13.40
2017-08-14T13:27:19.646Z,1.63
2017-08-14T13:29:47.677Z,12.43
2017-08-14T13:32:15.296Z,14.70
2017-08-14T13:34:42.063Z,11.13
2017-08-14T13:37:08.730Z,9.23
2017-08-14T13:39:35.466Z,12.20
2017-08-14T13:42:02.133Z,7.30
2017-08-14T13:44:28.830Z,5.00
2017-08-14T13:46:55.583Z,4.03
2017-08-14T13:49:22.308Z,2.03
2017-08-14T13:51:48.980Z,33.03
2017-08-14T13:54:15.706Z,12.30
2017-08-14T13:56:42.432Z,10.07
2017-08-14T13:59:09.191Z,8.97
2017-08-14T14:01:35.874Z,1.80
2017-08-14T14:04:02.523Z,25.60
2017-08-14T14:06:29.177Z,17.60
2017-08-14T14:08:55.870Z,1.07
2017-08-14T14:11:22.576Z,195.97
2017-08-14T14:13:49.321Z,147.17
2017-08-14T14:16:16.068Z,113.40
2017-08-14T14:18:42.744Z,93.93
2017-08-14T14:21:09.401Z,16.13
2017-08-14T14:23:36.177Z,20.60
2017-08-14T14:26:03.088Z,1.47
2017-08-14T14:28:29.770Z,55.10
2017-08-14T14:30:56.506Z,23.07
2017-08-14T14:33:23.149Z,6.27
2017-08-14T14:35:49.907Z,29.10
2017-08-14T14:38:16.595Z,2.20
2017-08-14T14:40:43.249Z,19.40
2017-08-14T14:43:09.916Z,20.33
2017-08-14T14:45:36.603Z,1.50
2017-08-14T14:48:03.304Z,6.03
2017-08-14T14:50:30.033Z,9.60
2017-08-14T14:52:56.746Z,4.00
2017-08-14T14:55:23.419Z,4.50
2017-08-14T14:57:50.064Z,2.37
2017-08-14T15:00:16.807Z,4.70
2017-08-14T15:02:43.467Z,9.77
2017-08-14T15:05:10.128Z,1.80
2017-08-14T15:07:36.915Z,2.03
2017-08-14T15:10:03.554Z,3.87
2017-08-14T15:12:30.211Z,1.60
2017-08-14T15:14:56.928Z,3.03
2017-08-14T15:17:23.573Z,1.10
2017-08-14T15:19:50.222Z,1.83
2017-08-14T15:22:16.897Z,2.10
2017-08-14T15:24:43.603Z,7.73
2017-08-14T15:27:10.248Z,1.73
2017-08-14T15:29:36.927Z,8.20
2017-08-14T15:32:03.582Z,2.30
2017-08-14T15:34:30.235Z,2.20
2017-08-14T15:36:56.996Z,3.47
2017-08-14T15:39:23.743Z,2.40
2017-08-14T15:41:50.402Z,1.93
2017-08-14T15:44:17.128Z,2.67
2017-08-14T15:46:43.776Z,1.50
2017-08-14T15:49:10.413Z,3.50
2017-08-14T15:51:37.091Z,3.10
2017-08-14T15:54:03.733Z,1.27
2017-08-14T15:56:30.396Z,2.17
2017-08-14T15:58:57.159Z,1.60
2017-08-14T16:01:23.889Z,1.40
2017-08-14T16:03:50.547Z,1.40
2017-08-14T16:06:17.234Z,1.70
2017-08-14T16:08:43.928Z,2.00
2017-08-14T16:11:10.755Z,2.20
2017-08-14T16:13:37.448Z,3.00
2017-08-14T16:16:04.107Z,2.50
2017-08-14T16:18:30.763Z,3.10
2017-08-14T16:20:57.438Z,3.00
2017-08-14T16:23:24.080Z,4.93
2017-08-14T16:25:50.719Z,4.43
2017-08-14T16:28:17.446Z,7.97
2017-08-14T16:30:44.092Z,18.90
2017-08-14T16:33:10.976Z,7.03
2017-08-14T16:35:37.655Z,3.33
2017-08-14T16:38:04.356Z,6.27
2017-08-14T16:40:31.019Z,5.47
2017-08-14T16:42:57.786Z,7.97
2017-08-14T16:45:24.457Z,22.50
2017-08-14T16:47:51.104Z,9.73
2017-08-14T16:50:17.882Z,9.53
2017-08-14T16:52:44.542Z,2.43
2017-08-14T16:55:11.294Z,11.43
2017-08-14T16:57:38.034Z,6.03
2017-08-14T17:00:04.692Z,4.60
2017-08-14T17:02:31.358Z,3.03
2017-08-14T17:04:58.159Z,29.83
2017-08-14T17:07:24.880Z,64.07
2017-08-14T17:09:51.644Z,29.93
2017-08-14T17:12:18.383Z,15.50
2017-08-14T17:14:45.034Z,20.50
2017-08-14T17:17:11.675Z,7.60
2017-08-14T17:19:38.624Z,4.23
2017-08-14T17:22:05.338Z,3.00
2017-08-14T17:24:31.984Z,3.53
2017-08-14T17:26:58.651Z,2.57
2017-08-14T17:29:25.353Z,3.60
2017-08-14T17:31:51.996Z,3.67
2017-08-14T17:34:18.942Z,2.78
2017-08-14T17:36:45.631Z,9.67
2017-08-14T17:39:12.311Z,10.93
2017-08-14T17:41:39.268Z,3.28
2017-08-14T17:44:06.014Z,4.67
2017-08-14T17:46:32.855Z,5.65
2017-08-14T17:48:59.746Z,2.45
2017-08-14T17:51:26.575Z,1.65
2017-08-14T17:53:53.239Z,2.30
2017-08-14T17:56:19.916Z,2.37
2017-08-14T17:58:46.578Z,3.10
2017-08-14T18:01:13.295Z,3.28
2017-08-14T18:03:40.039Z,6.43
2017-08-14T18:06:06.689Z,3.53
2017-08-14T18:08:33.346Z,2.53
2017-08-14T18:11:00.071Z,2.85
2017-08-14T18:13:26.716Z,5.35
2017-08-14T18:15:53.364Z,5.72
2017-08-14T18:18:20.055Z,3.55
2017-08-14T18:20:46.816Z,4.15
2017-08-14T18:23:13.556Z,3.70
2017-08-14T18:25:40.225Z,4.40
2017-08-14T18:28:06.878Z,3.67
2017-08-14T18:30:33.576Z,3.97
2017-08-14T18:33:00.256Z,3.35
2017-08-14T18:35:26.914Z,7.68
2017-08-14T18:37:53.597Z,7.45
2017-08-14T18:40:20.275Z,4.07
2017-08-14T18:42:46.924Z,3.90
2017-08-14T18:45:13.590Z,10.77
2017-08-14T18:47:40.262Z,3.45
2017-08-14T18:50:07.018Z,10.57
2017-08-14T18:52:33.672Z,4.93
2017-08-14T18:55:00.340Z,5.90
2017-08-14T18:57:27.026Z,4.93
2017-08-14T18:59:53.669Z,4.28
2017-08-14T19:02:20.414Z,11.32
2017-08-14T19:04:47.074Z,4.85
2017-08-14T19:07:13.887Z,3.80
2017-08-14T19:09:41.708Z,3.40
2017-08-14T19:12:07.260Z,5.07
2017-08-14T19:14:33.910Z,2.62
2017-08-14T19:17:00.968Z,3.37
2017-08-14T19:19:27.711Z,5.47
2017-08-14T19:21:54.361Z,3.50
2017-08-14T19:24:21.029Z,14.65
2017-08-14T19:26:47.672Z,4.87
2017-08-14T19:29:14.365Z,4.10
2017-08-14T19:31:41.032Z,2.87
2017-08-14T19:34:07.728Z,3.10
2017-08-14T19:36:34.479Z,2.95
2017-08-14T19:39:01.146Z,4.55
2017-08-14T19:41:30.303Z,4.60
2017-08-14T19:43:56.963Z,2.92
2017-08-14T19:46:23.710Z,3.22
2017-08-14T19:48:51.635Z,2.78
2017-08-14T19:51:18.296Z,3.75
2017-08-14T19:53:45.042Z,4.20
2017-08-14T19:56:11.790Z,3.75
2017-08-14T19:58:38.431Z,3.20
2017-08-14T20:01:05.095Z,2.90
2017-08-14T20:03:31.755Z,2.83
2017-08-14T20:05:58.441Z,7.82
2017-08-14T20:08:25.108Z,2.72
2017-08-14T20:10:51.839Z,2.87
2017-08-14T20:13:18.599Z,3.72
2017-08-14T20:15:47.197Z,5.35
2017-08-14T20:18:13.875Z,2.85
2017-08-14T20:20:40.524Z,3.45
2017-08-14T20:23:07.278Z,4.15
2017-08-14T20:25:33.938Z,3.95
2017-08-14T20:28:00.599Z,3.35
2017-08-14T20:30:27.283Z,3.45
2017-08-14T20:32:53.942Z,3.95
2017-08-14T20:35:20.664Z,3.30
2017-08-14T20:37:47.328Z,4.15
2017-08-14T20:40:13.972Z,5.95
2017-08-14T20:42:40.703Z,4.45
2017-08-14T20:45:07.439Z,3.00
2017-08-14T20:47:34.164Z,4.60
2017-08-14T20:50:00.823Z,5.45
2017-08-14T20:52:27.553Z,2.58
2017-08-14T20:54:54.293Z,3.97
2017-08-14T20:57:21.135Z,3.30
2017-08-14T20:59:47.814Z,3.40
2017-08-14T21:02:14.456Z,2.80
2017-08-14T21:04:41.151Z,5.07
2017-08-14T21:07:07.832Z,3.53
2017-08-14T21:09:34.491Z,3.55
2017-08-14T21:12:01.144Z,2.62
2017-08-14T21:14:27.828Z,3.78
2017-08-14T21:16:54.472Z,2.60
2017-08-14T21:19:21.112Z,2.40
2017-08-14T21:21:47.837Z,2.55
2017-08-14T21:24:14.490Z,2.17
2017-08-14T21:26:41.132Z,1.80
2017-08-14T21:29:07.804Z,2.28
2017-08-14T21:31:34.511Z,2.62
2017-08-14T21:34:01.163Z,2.75
2017-08-14T21:36:27.890Z,4.50
2017-08-14T21:38:54.531Z,2.78
2017-08-14T21:41:21.275Z,5.68
2017-08-14T21:43:48.003Z,2.00
2017-08-14T21:46:14.648Z,4.55
2017-08-14T21:48:41.387Z,2.87
2017-08-14T21:51:08.079Z,3.05
2017-08-14T21:53:34.738Z,4.03
2017-08-14T21:56:01.401Z,2.60
2017-08-14T21:58:28.136Z,6.75
2017-08-14T22:00:54.890Z,4.28
2017-08-14T22:03:21.551Z,2.90
2017-08-14T22:05:48.262Z,4.82
2017-08-14T22:08:14.904Z,2.60
2017-08-14T22:10:41.543Z,2.30
2017-08-14T22:13:08.287Z,6.18
2017-08-14T22:15:36.608Z,2.35
2017-08-14T22:18:03.256Z,7.53
2017-08-14T22:20:29.943Z,3.50
2017-08-14T22:22:56.588Z,3.47
2017-08-14T22:25:23.330Z,2.30
2017-08-14T22:27:50.072Z,3.97
2017-08-14T22:30:16.729Z,2.50
2017-08-14T22:32:43.368Z,4.90
2017-08-14T22:35:10.032Z,6.12
2017-08-14T22:37:36.682Z,3.78
2017-08-14T22:40:03.367Z,2.90
2017-08-14T22:42:30.050Z,2.47
2017-08-14T22:44:56.714Z,5.30
2017-08-14T22:47:23.356Z,3.50
2017-08-14T22:49:50.108Z,2.90
2017-08-14T22:52:16.763Z,2.90
2017-08-14T22:54:43.520Z,7.30
2017-08-14T22:57:10.254Z,3.58
2017-08-14T22:59:36.987Z,4.15
2017-08-14T23:02:03.647Z,3.40
2017-08-14T23:04:30.359Z,3.10
2017-08-14T23:06:57.110Z,3.37
2017-08-14T23:09:23.753Z,4.80
2017-08-14T23:11:50.427Z,4.37
2017-08-14T23:14:17.090Z,3.25
2017-08-14T23:16:43.780Z,2.80
2017-08-14T23:19:10.803Z,3.25
2017-08-14T23:21:37.463Z,3.30
2017-08-14T23:24:04.207Z,3.12
2017-08-14T23:26:30.928Z,3.45
2017-08-14T23:28:57.675Z,3.00
2017-08-14T23:31:24.409Z,2.65
2017-08-14T23:33:51.171Z,3.05
2017-08-14T23:36:17.904Z,3.75
2017-08-14T23:38:44.562Z,5.90
2017-08-14T23:41:11.229Z,3.80
2017-08-14T23:43:37.935Z,3.30
2017-08-14T23:46:04.670Z,3.90
2017-08-14T23:48:31.392Z,5.93
2017-08-14T23:50:58.047Z,4.10
2017-08-14T23:53:24.692Z,4.37
2017-08-14T23:55:51.435Z,3.50
2017-08-14T23:58:18.103Z,4.22
